Avalon — PBSF — position and weather

sailwx.info

Track history (hours):
 
Tides and Currents Weather Stations Pressure Air Temp Water Temp Dewpoint Dewpoint Depression Visibility Wind Speed Wind Dir Waves Ship Positions

Avalon

Last reported at 2016-May-27 03:32 UTC. Time now 2016-May-27 04:29 UTC.
Position N 53°37' E 009°33'.

Length 89 m; draft 3.3 m.

Type: Cargo ship. MMSI: 246578000.

Date/timePositionNaut miles runAvg speedWind from/ knotsBaromVisibWave heightAir tempDewpointWater temp
2016-May-27 03:32N 53°37' E 009°33'0 0.0
2016-May-27 02:32N 53°37' E 009°33'0 0.0
2016-May-27 01:32N 53°37' E 009°33'0 0.1
2016-May-27 00:32N 53°37' E 009°32'0 0.0
2016-May-26 23:32N 53°37' E 009°32'0 0.0
2016-May-26 22:32N 53°37' E 009°32'0 0.0
2016-May-26 21:32N 53°37' E 009°32'0 0.0
2016-May-26 20:32N 53°37' E 009°32'0 0.0
2016-May-26 19:32N 53°37' E 009°32'0 0.1
2016-May-26 18:32N 53°37' E 009°33'0 0.0
2016-May-26 17:32N 53°37' E 009°33'0 0.0
2016-May-26 16:32N 53°37' E 009°33'0 0.0
2016-May-26 15:32N 53°37' E 009°33'0 0.0
2016-May-26 14:32N 53°37' E 009°33'0 0.0
2016-May-26 13:32N 53°37' E 009°33'0 0.0
2016-May-26 12:32N 53°37' E 009°33'0 0.1
2016-May-26 11:32N 53°37' E 009°32'0 0.0
2016-May-26 10:32N 53°37' E 009°32'0 0.0
2016-May-26 09:32N 53°37' E 009°32'0 0.0
2016-May-26 08:32N 53°37' E 009°32'0 0.0
2016-May-26 07:32N 53°37' E 009°32'0 0.1
2016-May-26 06:32N 53°37' E 009°33'0 0.1
2016-May-26 05:32N 53°37' E 009°33'0 0.0
2016-May-26 04:32N 53°37' E 009°33'0 0.0
2016-May-26 03:32N 53°37' E 009°33'0 0.0
2016-May-26 02:32N 53°37' E 009°33'0 0.0
2016-May-26 01:32N 53°37' E 009°33'6 6.6
2016-May-26 00:33N 53°43' E 009°28'1211.6
2016-May-25 23:33N 53°52' E 009°16'10 9.9
2016-May-25 22:33N 53°51' E 008°59'9 8.8
2016-May-25 21:34N 53°51' E 008°45'9 8.5
2016-May-25 20:33N 53°58' E 008°35'9 8.6
2016-May-25 19:33N 53°59' E 008°21'9 8.9
2016-May-25 18:33N 54°07' E 008°12'1110.7
2016-May-25 17:33N 54°17' E 008°07'1010.3
2016-May-25 16:33N 54°26' E 007°60'1010.1
2016-May-25 15:33N 54°36' E 007°54'1110.2
2016-May-25 14:27N 54°47' E 007°48'1010.6
2016-May-25 13:33N 54°56' E 007°44'1111.2
2016-May-25 12:33N 55°07' E 007°38'1211.6
2016-May-25 11:33N 55°18' E 007°33'1211.8
2016-May-25 10:33N 55°29' E 007°27'1010.3
2016-May-25 09:33N 55°39' E 007°29'1111.0
2016-May-25 08:33N 55°48' E 007°42'1111.0
2016-May-25 07:33N 55°55' E 007°56'8 0.3
2016-May-24 08:26N 56°00' E 008°07'0 0.0
2016-May-24 07:20N 56°00' E 008°07'0 0.0
2016-May-23 05:32N 56°00' E 008°07'7 0.4
2016-May-22 10:32N 55°56' E 007°58'1010.0
2016-May-22 09:33N 55°49' E 007°45'1010.1
2016-May-22 08:33N 55°42' E 007°33'10 9.7
2016-May-22 07:34N 55°33' E 007°24'1010.1
2016-May-22 06:33N 55°23' E 007°29'1010.3
2016-May-22 05:33N 55°13' E 007°34'1110.6
2016-May-22 04:33N 55°03' E 007°40'1510.8
2016-May-22 03:08N 54°49' E 007°47'711.1
2016-May-22 02:33N 54°42' E 007°50'1111.3
2016-May-22 01:33N 54°32' E 007°56'1111.1
2016-May-22 00:33N 54°21' E 008°03'1110.7
2016-May-21 23:33N 54°11' E 008°10'1010.4
2016-May-21 22:33N 54°02' E 008°16'8 8.6
2016-May-21 21:33N 53°59' E 008°29'8 7.6
2016-May-21 20:34N 53°55' E 008°41'1010.0
2016-May-21 19:33N 53°51' E 008°56'1212.3
2016-May-21 18:34N 53°52' E 009°17'1212.5
2016-May-21 17:33N 53°42' E 009°29'1211.6
2016-May-21 16:33N 53°34' E 009°43'9 8.7
2016-May-21 15:33N 53°31' E 009°57'0 0.1
2016-May-21 14:33N 53°31' E 009°57'0 0.0
2016-May-21 13:33N 53°31' E 009°57'0 0.0
2016-May-21 12:33N 53°31' E 009°57'0 0.0
2016-May-21 11:30N 53°31' E 009°57'0 0.0
2016-May-21 10:30N 53°31' E 009°57'0 0.0
2016-May-21 09:33N 53°31' E 009°57'0 0.0
2016-May-21 08:33N 53°31' E 009°57'1 1.4
2016-May-21 07:33N 53°32' E 009°56'9 9.1
2016-May-21 06:33N 53°34' E 009°41'6 5.6
2016-May-21 05:31N 53°37' E 009°32'0 0.0
2016-May-21 04:31N 53°37' E 009°32'0 0.0
2016-May-21 03:31N 53°37' E 009°33'0 0.1
2016-May-21 02:31N 53°37' E 009°33'0 0.0
2016-May-21 01:31N 53°37' E 009°33'0 0.0
2016-May-21 00:31N 53°37' E 009°33'0 0.0
2016-May-20 23:31N 53°37' E 009°33'0 0.0
2016-May-20 22:31N 53°37' E 009°33'0 0.1
2016-May-20 21:31N 53°37' E 009°33'0 0.0
2016-May-20 20:31N 53°37' E 009°33'0 0.0
2016-May-20 19:31N 53°37' E 009°33'0 0.0
2016-May-20 18:31N 53°37' E 009°32'0 0.0
2016-May-20 17:31N 53°37' E 009°32'0 0.0
2016-May-20 16:31N 53°37' E 009°32'0 0.0
2016-May-20 15:31N 53°37' E 009°33'0 0.1
2016-May-20 14:31N 53°37' E 009°33'0 0.0
2016-May-20 13:31N 53°37' E 009°33'0 0.0
2016-May-20 12:31N 53°37' E 009°33'0 0.0
2016-May-20 11:31N 53°37' E 009°33'0 0.0
2016-May-20 10:31N 53°37' E 009°33'0 0.1
2016-May-20 09:31N 53°37' E 009°33'0 0.1
2016-May-20 08:31N 53°37' E 009°33'0 0.0
2016-May-20 07:31N 53°37' E 009°33'0 0.0
2016-May-20 06:31N 53°37' E 009°32'0 0.0
2016-May-20 05:31N 53°37' E 009°32'0 0.0
2016-May-20 04:31N 53°37' E 009°32'0 0.0
2016-May-20 03:31N 53°37' E 009°32'0 0.1
2016-May-20 02:31N 53°37' E 009°33'0 0.1
2016-May-20 01:31N 53°37' E 009°33'0 0.0
2016-May-20 00:31N 53°37' E 009°33'0 0.0
2016-May-19 23:31N 53°37' E 009°33'0 0.0
2016-May-19 22:31N 53°37' E 009°33'1010.4
2016-May-19 21:34N 53°46' E 009°24'1212.4
2016-May-19 20:33N 53°53' E 009°06'1212.0
2016-May-19 19:33N 53°51' E 008°46'1111.3
2016-May-19 18:33N 53°58' E 008°32'1211.5
2016-May-19 17:33N 53°59' E 008°12'8 8.0
2016-May-19 16:33N 53°54' E 008°02'1111.4
2016-May-19 15:33N 53°45' E 008°13'1414.1
2016-May-19 14:33N 53°35' E 008°31'1312.9
2016-May-19 13:33N 53°22' E 008°30'1211.5
2016-May-19 12:33N 53°11' E 008°33'7 7.0
2016-May-19 11:33N 53°07' E 008°43'1 0.7
2016-May-19 10:33N 53°07' E 008°44'0 0.0
2016-May-19 09:33N 53°07' E 008°44'0 0.0
2016-May-19 08:33N 53°07' E 008°44'0 0.0
2016-May-19 07:33N 53°07' E 008°44'0 0.0
2016-May-19 06:33N 53°07' E 008°44'0 0.0
2016-May-19 05:33N 53°07' E 008°44'0 0.0
2016-May-19 04:33N 53°07' E 008°44'0 0.0
2016-May-19 03:33N 53°07' E 008°44'0 0.0
2016-May-19 02:33N 53°07' E 008°44'0 0.0
2016-May-19 01:33N 53°07' E 008°44'0 0.0
2016-May-19 00:33N 53°07' E 008°44'0 0.0
2016-May-18 23:33N 53°07' E 008°44'0 0.0
2016-May-18 22:33N 53°07' E 008°44'0 0.0
2016-May-18 21:33N 53°07' E 008°44'0 0.0
2016-May-18 20:33N 53°07' E 008°44'0 0.0
2016-May-18 19:33N 53°07' E 008°44'0 0.0
2016-May-18 18:33N 53°07' E 008°44'0 0.0
2016-May-18 17:33N 53°07' E 008°44'0 0.0
2016-May-18 16:33N 53°07' E 008°44'0 0.0
2016-May-18 15:33N 53°07' E 008°44'0 0.0
2016-May-18 14:33N 53°07' E 008°44'0 0.0
2016-May-18 13:33N 53°07' E 008°44'0 0.0
2016-May-18 12:33N 53°07' E 008°44'0 0.0
2016-May-18 11:33N 53°07' E 008°44'0 0.0
2016-May-18 10:33N 53°07' E 008°44'0 0.0
2016-May-18 09:33N 53°07' E 008°44'0 0.0
2016-May-18 08:33N 53°07' E 008°44'0 0.0
2016-May-18 07:33N 53°07' E 008°44'0 0.0
2016-May-18 06:33N 53°07' E 008°44'0 0.0
2016-May-18 05:33N 53°07' E 008°44'0 0.0
2016-May-18 04:33N 53°07' E 008°44'0 0.0
2016-May-18 03:33N 53°07' E 008°44'0 0.0
2016-May-18 02:33N 53°07' E 008°44'0 0.0
2016-May-18 01:33N 53°07' E 008°44'0 0.0
2016-May-18 00:33N 53°07' E 008°44'0 0.0
2016-May-17 23:33N 53°07' E 008°44'0 0.0
2016-May-17 22:33N 53°07' E 008°44'0 0.0
2016-May-17 21:33N 53°07' E 008°44'0 0.0
2016-May-17 20:33N 53°07' E 008°44'0 0.0
2016-May-17 19:33N 53°07' E 008°44'0 0.0
2016-May-17 18:33N 53°07' E 008°44'0 0.0
2016-May-17 17:33N 53°07' E 008°44'0 0.0
2016-May-17 16:33N 53°07' E 008°44'0 0.0
2016-May-17 15:33N 53°07' E 008°44'0 0.0
2016-May-17 14:33N 53°07' E 008°44'0 0.0
2016-May-17 13:33N 53°07' E 008°44'0 0.0
2016-May-17 12:33N 53°07' E 008°44'0 0.0
2016-May-17 11:33N 53°07' E 008°44'0 0.0
2016-May-17 10:33N 53°07' E 008°44'0 0.0
2016-May-17 09:33N 53°07' E 008°44'0 0.0
2016-May-17 08:33N 53°07' E 008°44'0 0.0
2016-May-17 07:33N 53°07' E 008°44'0 0.0
2016-May-17 06:33N 53°07' E 008°44'0 0.0
2016-May-17 05:33N 53°07' E 008°44'0 0.0
2016-May-17 04:33N 53°07' E 008°44'0 0.0
2016-May-17 03:33N 53°07' E 008°44'  
Track history (hours):
 
Tides and Currents Weather Stations Pressure Air Temp Water Temp Dewpoint Dewpoint Depression Visibility Wind Speed Wind Dir Waves Ship Positions

Avalon

Last reported at 2016-May-27 03:32 UTC. Time now 2016-May-27 04:29 UTC.
Position N 53°37' E 009°33'.

Length 89 m; draft 3.3 m.

Type: Cargo ship. MMSI: 246578000.

Date/timePositionNaut miles runAvg speedWind from/ knotsBaromVisibWave heightAir tempDewpointWater temp
2016-May-27 03:32N 53°37' E 009°33'0 0.0
2016-May-27 02:32N 53°37' E 009°33'0 0.0
2016-May-27 01:32N 53°37' E 009°33'0 0.1
2016-May-27 00:32N 53°37' E 009°32'0 0.0
2016-May-26 23:32N 53°37' E 009°32'0 0.0
2016-May-26 22:32N 53°37' E 009°32'0 0.0
2016-May-26 21:32N 53°37' E 009°32'0 0.0
2016-May-26 20:32N 53°37' E 009°32'0 0.0
2016-May-26 19:32N 53°37' E 009°32'0 0.1
2016-May-26 18:32N 53°37' E 009°33'0 0.0
2016-May-26 17:32N 53°37' E 009°33'0 0.0
2016-May-26 16:32N 53°37' E 009°33'0 0.0
2016-May-26 15:32N 53°37' E 009°33'0 0.0
2016-May-26 14:32N 53°37' E 009°33'0 0.0
2016-May-26 13:32N 53°37' E 009°33'0 0.0
2016-May-26 12:32N 53°37' E 009°33'0 0.1
2016-May-26 11:32N 53°37' E 009°32'0 0.0
2016-May-26 10:32N 53°37' E 009°32'0 0.0
2016-May-26 09:32N 53°37' E 009°32'0 0.0
2016-May-26 08:32N 53°37' E 009°32'0 0.0
2016-May-26 07:32N 53°37' E 009°32'0 0.1
2016-May-26 06:32N 53°37' E 009°33'0 0.1
2016-May-26 05:32N 53°37' E 009°33'0 0.0
2016-May-26 04:32N 53°37' E 009°33'0 0.0
2016-May-26 03:32N 53°37' E 009°33'0 0.0
2016-May-26 02:32N 53°37' E 009°33'0 0.0
2016-May-26 01:32N 53°37' E 009°33'6 6.6
2016-May-26 00:33N 53°43' E 009°28'1211.6
2016-May-25 23:33N 53°52' E 009°16'10 9.9
2016-May-25 22:33N 53°51' E 008°59'9 8.8
2016-May-25 21:34N 53°51' E 008°45'9 8.5
2016-May-25 20:33N 53°58' E 008°35'9 8.6
2016-May-25 19:33N 53°59' E 008°21'9 8.9
2016-May-25 18:33N 54°07' E 008°12'1110.7
2016-May-25 17:33N 54°17' E 008°07'1010.3
2016-May-25 16:33N 54°26' E 007°60'1010.1
2016-May-25 15:33N 54°36' E 007°54'1110.2
2016-May-25 14:27N 54°47' E 007°48'1010.6
2016-May-25 13:33N 54°56' E 007°44'1111.2
2016-May-25 12:33N 55°07' E 007°38'1211.6
2016-May-25 11:33N 55°18' E 007°33'1211.8
2016-May-25 10:33N 55°29' E 007°27'1010.3
2016-May-25 09:33N 55°39' E 007°29'1111.0
2016-May-25 08:33N 55°48' E 007°42'1111.0
2016-May-25 07:33N 55°55' E 007°56'8 0.3
2016-May-24 08:26N 56°00' E 008°07'0 0.0
2016-May-24 07:20N 56°00' E 008°07'0 0.0
2016-May-23 05:32N 56°00' E 008°07'7 0.4
2016-May-22 10:32N 55°56' E 007°58'1010.0
2016-May-22 09:33N 55°49' E 007°45'1010.1
2016-May-22 08:33N 55°42' E 007°33'10 9.7
2016-May-22 07:34N 55°33' E 007°24'1010.1
2016-May-22 06:33N 55°23' E 007°29'1010.3
2016-May-22 05:33N 55°13' E 007°34'1110.6
2016-May-22 04:33N 55°03' E 007°40'1510.8
2016-May-22 03:08N 54°49' E 007°47'711.1
2016-May-22 02:33N 54°42' E 007°50'1111.3
2016-May-22 01:33N 54°32' E 007°56'1111.1
2016-May-22 00:33N 54°21' E 008°03'1110.7
2016-May-21 23:33N 54°11' E 008°10'1010.4
2016-May-21 22:33N 54°02' E 008°16'8 8.6
2016-May-21 21:33N 53°59' E 008°29'8 7.6
2016-May-21 20:34N 53°55' E 008°41'1010.0
2016-May-21 19:33N 53°51' E 008°56'1212.3
2016-May-21 18:34N 53°52' E 009°17'1212.5
2016-May-21 17:33N 53°42' E 009°29'1211.6
2016-May-21 16:33N 53°34' E 009°43'9 8.7
2016-May-21 15:33N 53°31' E 009°57'0 0.1
2016-May-21 14:33N 53°31' E 009°57'0 0.0
2016-May-21 13:33N 53°31' E 009°57'0 0.0
2016-May-21 12:33N 53°31' E 009°57'0 0.0
2016-May-21 11:30N 53°31' E 009°57'0 0.0
2016-May-21 10:30N 53°31' E 009°57'0 0.0
2016-May-21 09:33N 53°31' E 009°57'0 0.0
2016-May-21 08:33N 53°31' E 009°57'1 1.4
2016-May-21 07:33N 53°32' E 009°56'9 9.1
2016-May-21 06:33N 53°34' E 009°41'6 5.6
2016-May-21 05:31N 53°37' E 009°32'0 0.0
2016-May-21 04:31N 53°37' E 009°32'0 0.0
2016-May-21 03:31N 53°37' E 009°33'0 0.1
2016-May-21 02:31N 53°37' E 009°33'0 0.0
2016-May-21 01:31N 53°37' E 009°33'0 0.0
2016-May-21 00:31N 53°37' E 009°33'0 0.0
2016-May-20 23:31N 53°37' E 009°33'0 0.0
2016-May-20 22:31N 53°37' E 009°33'0 0.1
2016-May-20 21:31N 53°37' E 009°33'0 0.0
2016-May-20 20:31N 53°37' E 009°33'0 0.0
2016-May-20 19:31N 53°37' E 009°33'0 0.0
2016-May-20 18:31N 53°37' E 009°32'0 0.0
2016-May-20 17:31N 53°37' E 009°32'0 0.0
2016-May-20 16:31N 53°37' E 009°32'0 0.0
2016-May-20 15:31N 53°37' E 009°33'0 0.1
2016-May-20 14:31N 53°37' E 009°33'0 0.0
2016-May-20 13:31N 53°37' E 009°33'0 0.0
2016-May-20 12:31N 53°37' E 009°33'0 0.0
2016-May-20 11:31N 53°37' E 009°33'0 0.0
2016-May-20 10:31N 53°37' E 009°33'0 0.1
2016-May-20 09:31N 53°37' E 009°33'0 0.1
2016-May-20 08:31N 53°37' E 009°33'0 0.0
2016-May-20 07:31N 53°37' E 009°33'0 0.0
2016-May-20 06:31N 53°37' E 009°32'0 0.0
2016-May-20 05:31N 53°37' E 009°32'0 0.0
2016-May-20 04:31N 53°37' E 009°32'0 0.0
2016-May-20 03:31N 53°37' E 009°32'0 0.1
2016-May-20 02:31N 53°37' E 009°33'0 0.1
2016-May-20 01:31N 53°37' E 009°33'0 0.0
2016-May-20 00:31N 53°37' E 009°33'0 0.0
2016-May-19 23:31N 53°37' E 009°33'0 0.0
2016-May-19 22:31N 53°37' E 009°33'1010.4
2016-May-19 21:34N 53°46' E 009°24'1212.4
2016-May-19 20:33N 53°53' E 009°06'1212.0
2016-May-19 19:33N 53°51' E 008°46'1111.3
2016-May-19 18:33N 53°58' E 008°32'1211.5
2016-May-19 17:33N 53°59' E 008°12'8 8.0
2016-May-19 16:33N 53°54' E 008°02'1111.4
2016-May-19 15:33N 53°45' E 008°13'1414.1
2016-May-19 14:33N 53°35' E 008°31'1312.9
2016-May-19 13:33N 53°22' E 008°30'1211.5
2016-May-19 12:33N 53°11' E 008°33'7 7.0
2016-May-19 11:33N 53°07' E 008°43'1 0.7
2016-May-19 10:33N 53°07' E 008°44'0 0.0
2016-May-19 09:33N 53°07' E 008°44'0 0.0
2016-May-19 08:33N 53°07' E 008°44'0 0.0
2016-May-19 07:33N 53°07' E 008°44'0 0.0
2016-May-19 06:33N 53°07' E 008°44'0 0.0
2016-May-19 05:33N 53°07' E 008°44'0 0.0
2016-May-19 04:33N 53°07' E 008°44'0 0.0
2016-May-19 03:33N 53°07' E 008°44'0 0.0
2016-May-19 02:33N 53°07' E 008°44'0 0.0
2016-May-19 01:33N 53°07' E 008°44'0 0.0
2016-May-19 00:33N 53°07' E 008°44'0 0.0
2016-May-18 23:33N 53°07' E 008°44'0 0.0
2016-May-18 22:33N 53°07' E 008°44'0 0.0
2016-May-18 21:33N 53°07' E 008°44'0 0.0
2016-May-18 20:33N 53°07' E 008°44'0 0.0
2016-May-18 19:33N 53°07' E 008°44'0 0.0
2016-May-18 18:33N 53°07' E 008°44'0 0.0
2016-May-18 17:33N 53°07' E 008°44'0 0.0
2016-May-18 16:33N 53°07' E 008°44'0 0.0
2016-May-18 15:33N 53°07' E 008°44'0 0.0
2016-May-18 14:33N 53°07' E 008°44'0 0.0
2016-May-18 13:33N 53°07' E 008°44'0 0.0
2016-May-18 12:33N 53°07' E 008°44'0 0.0
2016-May-18 11:33N 53°07' E 008°44'0 0.0
2016-May-18 10:33N 53°07' E 008°44'0 0.0
2016-May-18 09:33N 53°07' E 008°44'0 0.0
2016-May-18 08:33N 53°07' E 008°44'0 0.0
2016-May-18 07:33N 53°07' E 008°44'0 0.0
2016-May-18 06:33N 53°07' E 008°44'0 0.0
2016-May-18 05:33N 53°07' E 008°44'0 0.0
2016-May-18 04:33N 53°07' E 008°44'0 0.0
2016-May-18 03:33N 53°07' E 008°44'0 0.0
2016-May-18 02:33N 53°07' E 008°44'0 0.0
2016-May-18 01:33N 53°07' E 008°44'0 0.0
2016-May-18 00:33N 53°07' E 008°44'0 0.0
2016-May-17 23:33N 53°07' E 008°44'0 0.0
2016-May-17 22:33N 53°07' E 008°44'0 0.0
2016-May-17 21:33N 53°07' E 008°44'0 0.0
2016-May-17 20:33N 53°07' E 008°44'0 0.0
2016-May-17 19:33N 53°07' E 008°44'0 0.0
2016-May-17 18:33N 53°07' E 008°44'0 0.0
2016-May-17 17:33N 53°07' E 008°44'0 0.0
2016-May-17 16:33N 53°07' E 008°44'0 0.0
2016-May-17 15:33N 53°07' E 008°44'0 0.0
2016-May-17 14:33N 53°07' E 008°44'0 0.0
2016-May-17 13:33N 53°07' E 008°44'0 0.0
2016-May-17 12:33N 53°07' E 008°44'0 0.0
2016-May-17 11:33N 53°07' E 008°44'0 0.0
2016-May-17 10:33N 53°07' E 008°44'0 0.0
2016-May-17 09:33N 53°07' E 008°44'0 0.0
2016-May-17 08:33N 53°07' E 008°44'0 0.0
2016-May-17 07:33N 53°07' E 008°44'0 0.0
2016-May-17 06:33N 53°07' E 008°44'0 0.0
2016-May-17 05:33N 53°07' E 008°44'0 0.0
2016-May-17 04:33N 53°07' E 008°44'0 0.0
2016-May-17 03:33N 53°07' E 008°44'  

Dump ship's entire track history